Time;durP1;ratioP1;P1;durP2;ratioP2;P2;SDS_P1;SDS_P2;PMS_P1;PMS_P2;Temp;Humidity;BMP_temperature;BMP_pressure;BME280_temperature;BME280_humidity;BME280_pressure;Samples;Min_cycle;Max_cycle;Signal;HPM_P1;HPM_P2
2022/09/05 00:03:40;;;;;;;6.03;3.85;;;11.80;99.90;;;;;;8354331;28;20521;-91
2022/09/05 00:08:15;;;;;;;5.40;3.78;;;11.60;99.90;;;;;;8320805;28;20028;-91
2022/09/05 00:12:17;;;;;;;4.50;4.03;;;11.40;99.90;;;;;;8333803;28;20028;-91
2022/09/05 00:16:17;;;;;;;6.50;4.65;;;11.50;99.90;;;;;;8334035;28;20029;-92
2022/09/05 00:20:24;;;;;;;5.25;4.13;;;11.70;99.90;;;;;;8327443;28;20064;-92
2022/09/05 00:24:44;;;;;;;6.97;3.80;;;11.80;99.90;;;;;;8329679;28;20017;-92
2022/09/05 00:28:53;;;;;;;8.90;4.72;;;11.70;99.90;;;;;;8333540;28;20030;-92
2022/09/05 00:33:27;;;;;;;5.30;4.28;;;11.60;99.90;;;;;;8333072;28;20021;-91
2022/09/05 00:37:43;;;;;;;5.22;4.20;;;11.70;99.90;;;;;;8316966;28;20037;-91
2022/09/05 00:41:48;;;;;;;8.07;4.72;;;11.60;99.90;;;;;;8333876;28;20815;-92
2022/09/05 00:45:57;;;;;;;6.13;4.80;;;11.50;99.90;;;;;;8333438;28;20395;-92
2022/09/05 00:50:23;;;;;;;8.65;4.82;;;11.50;99.90;;;;;;8333840;28;20022;-91
2022/09/05 00:54:35;;;;;;;9.82;4.93;;;11.50;99.90;;;;;;8316950;28;20095;-91
2022/09/05 00:59:02;;;;;;;5.07;4.35;;;11.60;99.90;;;;;;8338908;28;20037;-91
2022/09/05 01:03:24;;;;;;;5.53;4.55;;;11.40;99.90;;;;;;8330269;28;20022;-91
2022/09/05 01:07:32;;;;;;;6.00;4.00;;;11.20;99.90;;;;;;8328930;28;20506;-92
2022/09/05 01:11:41;;;;;;;6.78;4.03;;;11.10;99.90;;;;;;8333571;28;20051;-91
2022/09/05 01:15:55;;;;;;;4.57;4.05;;;11.00;99.90;;;;;;8333695;28;20025;-92
2022/09/05 01:20:27;;;;;;;5.53;4.30;;;11.00;99.90;;;;;;8333552;28;20082;-92
2022/09/05 01:25:01;;;;;;;5.65;3.58;;;11.00;99.90;;;;;;8329259;28;20040;-92
2022/09/05 01:29:11;;;;;;;5.88;3.83;;;10.80;99.90;;;;;;8334652;28;20032;-92
2022/09/05 01:33:21;;;;;;;6.45;3.95;;;10.70;99.90;;;;;;8317334;28;20025;-92
2022/09/05 01:37:43;;;;;;;7.13;4.25;;;10.90;99.90;;;;;;8318072;28;20446;-92
2022/09/05 01:42:11;;;;;;;3.65;3.25;;;11.20;99.90;;;;;;8332053;28;20021;-92
2022/09/05 01:46:50;;;;;;;3.70;3.22;;;11.10;99.90;;;;;;8320170;28;20025;-91
2022/09/05 01:51:08;;;;;;;4.40;3.88;;;10.90;99.90;;;;;;8326305;28;20495;-91
2022/09/05 01:55:21;;;;;;;7.47;4.18;;;10.80;99.90;;;;;;8324306;28;20033;-91
2022/09/05 01:59:39;;;;;;;5.15;4.22;;;10.70;99.90;;;;;;8310007;28;20033;-92
2022/09/05 02:03:46;;;;;;;6.35;4.40;;;10.60;99.90;;;;;;8327932;28;20033;-91
2022/09/05 02:08:14;;;;;;;8.65;4.90;;;10.50;99.90;;;;;;8325903;28;20034;-91
2022/09/05 02:12:14;;;;;;;5.18;4.25;;;10.50;99.90;;;;;;8325303;28;20029;-91
2022/09/05 02:16:36;;;;;;;6.15;4.68;;;10.30;99.90;;;;;;8309105;28;20470;-91
2022/09/05 02:20:40;;;;;;;5.40;4.40;;;10.30;99.90;;;;;;8309147;28;20033;-90
2022/09/05 02:24:46;;;;;;;6.47;4.25;;;10.40;99.90;;;;;;8329236;28;20022;-91
2022/09/05 02:28:50;;;;;;;4.82;3.95;;;10.30;99.90;;;;;;8332397;28;20380;-91
2022/09/05 02:33:13;;;;;;;7.57;4.22;;;10.30;99.90;;;;;;8331902;28;20076;-91
2022/09/05 02:37:34;;;;;;;5.90;4.72;;;10.20;99.90;;;;;;8330776;28;20021;-91
2022/09/05 02:41:58;;;;;;;7.63;4.95;;;10.30;99.90;;;;;;8330777;28;20032;-91
2022/09/05 02:46:22;;;;;;;4.93;4.05;;;10.30;99.90;;;;;;8331467;28;20026;-91
2022/09/05 02:50:26;;;;;;;8.35;4.32;;;10.20;99.90;;;;;;8315572;28;20108;-90
2022/09/05 02:54:42;;;;;;;8.55;5.32;;;10.40;99.90;;;;;;8331325;28;20430;-91
2022/09/05 02:58:57;;;;;;;7.10;5.47;;;10.50;99.90;;;;;;8316901;28;20063;-91
2022/09/05 03:03:47;;;;;;;6.28;4.85;;;10.50;99.90;;;;;;8330894;28;20030;-91
2022/09/05 03:07:53;;;;;;;6.40;4.78;;;10.40;99.90;;;;;;8260503;28;20031;-91
2022/09/05 03:12:21;;;;;;;5.53;4.60;;;10.30;99.90;;;;;;8330265;28;20026;-91
2022/09/05 03:16:42;;;;;;;7.82;4.50;;;10.20;99.90;;;;;;8330565;28;20076;-91
2022/09/05 03:20:43;;;;;;;;;;;10.10;99.90;;;;;;8328991;28;20029;-91
2022/09/05 03:25:21;;;;;;;9.82;4.47;;;10.20;99.90;;;;;;8334312;28;20318;-90
2022/09/05 03:29:46;;;;;;;6.10;4.03;;;10.30;99.90;;;;;;8330164;28;20407;-91
2022/09/05 03:34:07;;;;;;;6.68;4.63;;;10.20;99.90;;;;;;8327943;28;20422;-91
2022/09/05 03:38:10;;;;;;;6.45;4.55;;;10.40;99.90;;;;;;8328293;28;20025;-91
2022/09/05 03:42:32;;;;;;;6.40;4.68;;;10.30;99.90;;;;;;8311247;28;20048;-91
2022/09/05 03:46:52;;;;;;;7.43;4.65;;;10.50;99.90;;;;;;8308999;28;20053;-91
2022/09/05 03:51:27;;;;;;;8.50;4.22;;;10.30;99.90;;;;;;8313970;28;20113;-91
2022/09/05 03:55:51;;;;;;;7.53;4.35;;;10.20;99.90;;;;;;8325249;28;20076;-91
2022/09/05 04:00:07;;;;;;;5.63;4.13;;;10.00;99.90;;;;;;8333485;28;20112;-91
2022/09/05 04:04:24;;;;;;;9.57;4.60;;;10.00;99.90;;;;;;8329477;28;20519;-91
2022/09/05 04:08:35;;;;;;;5.75;4.07;;;9.80;99.90;;;;;;8309376;28;20025;-91
2022/09/05 04:12:57;;;;;;;5.35;4.28;;;9.90;99.90;;;;;;8328595;28;20026;-91
2022/09/05 04:17:06;;;;;;;7.28;4.68;;;9.90;99.90;;;;;;8334049;28;20030;-91
2022/09/05 04:21:18;;;;;;;6.72;4.78;;;9.80;99.90;;;;;;8328555;28;20034;-90
2022/09/05 04:25:38;;;;;;;7.82;4.63;;;9.90;99.90;;;;;;8312012;28;20021;-91
2022/09/05 04:30:14;;;;;;;7.07;4.53;;;9.90;99.90;;;;;;8311682;28;20025;-91
2022/09/05 04:34:44;;;;;;;8.27;4.63;;;10.00;99.90;;;;;;8311278;28;20049;-92
2022/09/05 04:39:08;;;;;;;5.00;4.25;;;9.90;99.90;;;;;;8336264;28;20028;-92
2022/09/05 04:43:08;;;;;;;7.22;3.97;;;9.90;99.90;;;;;;8334200;28;20026;-91
2022/09/05 04:47:18;;;;;;;8.18;4.20;;;9.80;99.90;;;;;;8336298;28;20044;-91
2022/09/05 04:51:46;;;;;;;8.88;4.38;;;9.80;99.90;;;;;;8317255;28;20045;-91
2022/09/05 04:55:50;;;;;;;5.35;3.97;;;9.80;99.90;;;;;;8328035;28;20403;-91
2022/09/05 05:00:07;;;;;;;5.35;4.72;;;9.80;99.90;;;;;;8331010;28;20108;-91
2022/09/05 05:04:15;;;;;;;6.60;4.57;;;9.80;99.90;;;;;;8329656;28;20029;-90
2022/09/05 05:08:25;;;;;;;8.00;4.10;;;9.90;99.90;;;;;;8316607;28;20029;-91
2022/09/05 05:12:53;;;;;;;6.43;4.13;;;10.10;99.90;;;;;;8328260;28;20025;-90
2022/09/05 05:17:05;;;;;;;6.32;4.00;;;10.20;99.90;;;;;;8308069;28;20044;-91
2022/09/05 05:21:13;;;;;;;4.13;3.72;;;10.30;99.90;;;;;;8304272;28;20025;-91
2022/09/05 05:25:14;;;;;;;8.00;3.90;;;10.50;99.90;;;;;;8310519;28;20040;-90
2022/09/05 05:29:14;;;;;;;8.63;3.47;;;10.70;99.90;;;;;;8326833;28;20108;-91
2022/09/05 05:33:26;;;;;;;8.05;3.65;;;10.80;99.90;;;;;;8310756;28;20025;-91
2022/09/05 05:37:32;;;;;;;6.47;4.20;;;11.00;99.90;;;;;;8310855;28;20124;-90
2022/09/05 05:41:49;;;;;;;5.50;4.35;;;11.00;99.90;;;;;;8326687;28;20053;-91
2022/09/05 05:45:58;;;;;;;7.03;4.47;;;11.20;99.90;;;;;;8326534;28;20021;-91
2022/09/05 05:50:32;;;;;;;5.75;4.90;;;11.20;99.90;;;;;;8325838;28;20022;-90
2022/09/05 05:54:56;;;;;;;7.20;4.50;;;11.30;99.90;;;;;;8305942;28;20071;-91
2022/09/05 05:59:15;;;;;;;5.45;4.40;;;11.60;99.90;;;;;;8309706;28;20043;-91
2022/09/05 06:03:40;;;;;;;7.32;4.82;;;11.70;99.90;;;;;;8330018;28;20442;-90
2022/09/05 06:07:51;;;;;;;9.55;6.97;;;11.90;99.90;;;;;;8329106;28;20018;-91
2022/09/05 06:12:05;;;;;;;12.23;9.60;;;11.90;99.90;;;;;;8326093;28;20121;-90
2022/09/05 06:16:41;;;;;;;16.42;11.30;;;12.00;99.90;;;;;;8324439;28;20056;-91
2022/09/05 06:21:03;;;;;;;12.65;9.25;;;12.10;99.90;;;;;;8309215;28;20033;-90
2022/09/05 06:25:25;;;;;;;11.57;8.40;;;12.30;99.90;;;;;;8325576;28;20037;-90
2022/09/05 06:29:54;;;;;;;7.03;5.82;;;12.50;99.90;;;;;;8330994;28;20056;-91
2022/09/05 06:34:32;;;;;;;4.95;4.28;;;12.60;99.90;;;;;;8309650;28;20031;-91
2022/09/05 06:38:41;;;;;;;10.60;4.35;;;12.80;99.90;;;;;;8322391;28;20040;-91
2022/09/05 06:43:15;;;;;;;5.57;3.80;;;12.90;99.90;;;;;;8315137;28;20162;-91
2022/09/05 06:47:18;;;;;;;6.78;3.90;;;13.10;99.90;;;;;;8309283;28;20575;-91
2022/09/05 06:51:40;;;;;;;5.57;3.90;;;13.20;99.90;;;;;;8330651;28;20014;-90
2022/09/05 06:55:46;;;;;;;6.63;3.97;;;13.50;99.90;;;;;;8308725;28;20022;-91
2022/09/05 07:00:31;;;;;;;6.72;4.05;;;13.70;99.90;;;;;;8325693;28;20113;-91
2022/09/05 07:04:40;;;;;;;5.20;4.10;;;14.00;99.90;;;;;;8330030;28;20036;-91
2022/09/05 07:08:52;;;;;;;5.35;4.07;;;14.10;99.90;;;;;;8312139;28;20038;-91
2022/09/05 07:13:14;;;;;;;7.15;4.70;;;14.40;99.90;;;;;;8331105;28;20039;-91
2022/09/05 07:17:30;;;;;;;4.28;3.88;;;14.60;99.90;;;;;;8330927;28;20037;-91
2022/09/05 07:22:12;;;;;;;5.25;4.47;;;15.20;99.90;;;;;;8330902;28;20159;-91
2022/09/05 07:26:16;;;;;;;5.45;4.53;;;15.30;99.90;;;;;;8312571;28;20021;-91
2022/09/05 07:30:18;;;;;;;5.15;4.45;;;15.50;99.90;;;;;;8314361;28;20112;-91
2022/09/05 07:34:30;;;;;;;5.43;4.38;;;15.90;99.90;;;;;;8332141;28;20061;-91
2022/09/05 07:38:33;;;;;;;7.78;4.30;;;16.20;99.90;;;;;;8315501;28;20038;-91
2022/09/05 07:42:50;;;;;;;10.30;7.57;;;16.60;99.90;;;;;;8332178;28;20029;-92
2022/09/05 07:47:05;;;;;;;5.05;4.18;;;16.80;99.90;;;;;;8362181;23;20046;-80
2022/09/05 07:51:11;;;;;;;3.97;3.30;;;17.50;99.90;;;;;;8326194;28;20026;-81
2022/09/05 07:55:33;;;;;;;5.72;3.53;;;18.00;99.90;;;;;;8321622;28;20033;-80
2022/09/05 07:59:38;;;;;;;4.15;3.45;;;19.00;99.90;;;;;;8317930;28;20056;-81
2022/09/05 08:03:40;;;;;;;4.47;3.08;;;19.60;99.90;;;;;;8338437;28;20037;-81
2022/09/05 08:07:45;;;;;;;4.40;2.95;;;20.50;99.90;;;;;;8319306;28;20117;-81
2022/09/05 08:11:47;;;;;;;4.80;3.00;;;21.20;99.90;;;;;;8326595;28;20495;-81
2022/09/05 08:15:52;;;;;;;3.50;2.63;;;21.50;99.90;;;;;;8323957;28;20033;-80
2022/09/05 08:20:16;;;;;;;5.43;2.80;;;21.80;99.90;;;;;;8342900;28;20052;-81
2022/09/05 08:24:27;;;;;;;4.10;2.78;;;22.40;99.90;;;;;;8343056;28;20659;-82
2022/09/05 08:28:51;;;;;;;2.40;2.20;;;22.80;99.90;;;;;;8316178;28;20025;-80
2022/09/05 08:33:35;;;;;;;3.30;2.88;;;23.10;99.90;;;;;;8341574;28;20025;-80
2022/09/05 08:37:36;;;;;;;3.00;2.70;;;23.60;99.90;;;;;;8298303;28;20033;-81
2022/09/05 08:41:49;;;;;;;3.20;2.75;;;24.10;99.90;;;;;;8321026;28;20022;-82
2022/09/05 08:46:21;;;;;;;4.63;2.90;;;23.80;99.90;;;;;;8326948;28;20033;-81
2022/09/05 08:50:40;;;;;;;3.95;2.35;;;24.80;99.90;;;;;;8338549;28;20021;-82
2022/09/05 08:55:23;;;;;;;3.33;2.70;;;24.90;99.90;;;;;;8331932;28;20056;-81
2022/09/05 08:59:53;;;;;;;4.20;2.45;;;24.70;99.90;;;;;;8337100;28;20017;-81
2022/09/05 09:04:34;;;;;;;4.53;2.38;;;24.30;99.90;;;;;;8334239;28;20075;-82
2022/09/05 09:09:05;;;;;;;2.33;2.10;;;24.40;99.90;;;;;;8333801;28;20021;-82
2022/09/05 09:13:26;;;;;;;;;;;25.10;99.90;;;;;;8338282;28;20022;-81
2022/09/05 09:17:39;;;;;;;5.32;4.10;;;25.40;99.90;;;;;;8315851;28;20286;-81
2022/09/05 09:22:10;;;;;;;3.58;2.83;;;25.10;99.90;;;;;;8331142;28;20125;-82
2022/09/05 09:26:41;;;;;;;3.85;2.30;;;25.10;99.90;;;;;;8331263;28;20025;-81
2022/09/05 09:30:52;;;;;;;2.90;2.37;;;25.10;99.90;;;;;;8324318;28;20033;-82
2022/09/05 09:35:02;;;;;;;3.22;2.60;;;25.30;99.90;;;;;;8329986;28;20268;-80
2022/09/05 09:39:26;;;;;;;7.30;3.33;;;25.80;99.90;;;;;;8325333;28;20032;-82
2022/09/05 09:43:55;;;;;;;3.67;2.30;;;25.90;99.90;;;;;;8347488;28;20022;-82
2022/09/05 09:48:29;;;;;;;2.75;2.25;;;26.10;99.90;;;;;;8328676;28;20379;-82
2022/09/05 09:53:13;;;;;;;3.03;2.38;;;26.10;99.90;;;;;;8333827;28;20032;-81
2022/09/05 09:57:32;;;;;;;4.38;2.80;;;26.30;99.90;;;;;;8282733;28;20522;-82
2022/09/05 10:02:14;;;;;;;4.22;2.70;;;26.40;99.90;;;;;;8334696;28;20026;-82
2022/09/05 10:06:26;;;;;;;3.40;2.72;;;26.90;99.90;;;;;;8352218;28;20024;-82
2022/09/05 10:10:46;;;;;;;3.65;2.78;;;27.10;99.90;;;;;;8332822;28;20531;-82
2022/09/05 10:15:00;;;;;;;3.70;2.60;;;27.40;99.90;;;;;;8329639;28;20625;-82
2022/09/05 10:19:06;;;;;;;2.90;2.70;;;27.30;99.90;;;;;;8332782;28;20032;-82
2022/09/05 10:23:16;;;;;;;3.35;2.90;;;27.60;99.90;;;;;;8331621;28;20036;-82
2022/09/05 10:27:51;;;;;;;6.27;2.90;;;27.40;99.90;;;;;;8340267;28;20018;-82
2022/09/05 10:32:05;;;;;;;3.05;2.75;;;28.10;99.90;;;;;;8333728;28;20052;-82
2022/09/05 10:36:25;;;;;;;9.98;8.63;;;29.10;99.90;;;;;;8330921;28;20032;-82
2022/09/05 10:40:27;;;;;;;2.72;2.40;;;29.40;99.90;;;;;;8329517;28;20226;-83
2022/09/05 10:44:49;;;;;;;2.70;2.50;;;30.20;99.90;;;;;;8338876;28;20034;-82
2022/09/05 10:48:55;;;;;;;2.92;2.35;;;29.30;99.90;;;;;;8346985;28;20028;-81
2022/09/05 10:53:18;;;;;;;2.97;2.60;;;29.20;99.90;;;;;;8336627;28;20026;-82
2022/09/05 10:57:22;;;;;;;3.72;2.40;;;30.30;99.90;;;;;;8337867;28;20437;-83
2022/09/05 11:01:32;;;;;;;3.08;2.28;;;31.30;99.90;;;;;;8336989;28;20049;-83
2022/09/05 11:05:37;;;;;;;3.67;2.83;;;31.10;99.00;;;;;;8323378;28;20399;-80
2022/09/05 11:10:00;;;;;;;2.20;2.00;;;30.90;99.60;;;;;;8320349;28;20030;-82
2022/09/05 11:14:18;;;;;;;4.38;2.30;;;31.10;98.30;;;;;;8337215;28;20076;-82
2022/09/05 11:18:48;;;;;;;3.13;2.10;;;31.00;99.80;;;;;;8329798;28;20044;-82
2022/09/05 11:22:56;;;;;;;4.03;2.08;;;31.80;97.50;;;;;;8343728;28;20029;-83
2022/09/05 11:27:16;;;;;;;2.35;2.13;;;32.30;95.70;;;;;;8324217;28;20111;-82
2022/09/05 11:31:20;;;;;;;2.85;1.70;;;32.90;93.80;;;;;;8342436;28;20623;-81
2022/09/05 11:35:25;;;;;;;4.32;1.60;;;33.10;91.40;;;;;;8337096;28;20022;-83
2022/09/05 11:40:03;;;;;;;2.38;2.17;;;34.20;83.60;;;;;;8323942;28;20021;-83
2022/09/05 11:44:13;;;;;;;3.95;2.40;;;33.10;89.00;;;;;;8343292;28;20040;-83
2022/09/05 11:48:32;;;;;;;2.70;2.38;;;31.80;90.40;;;;;;8338348;28;20537;-83
2022/09/05 11:53:05;;;;;;;2.45;2.00;;;31.90;91.60;;;;;;8337064;28;20113;-83
2022/09/05 11:57:25;;;;;;;2.25;1.70;;;31.70;91.40;;;;;;8333528;28;20033;-83
2022/09/05 12:01:40;;;;;;;3.40;2.20;;;32.70;90.00;;;;;;8334984;28;20410;-84
2022/09/05 12:05:55;;;;;;;2.75;1.70;;;33.70;87.30;;;;;;8322022;28;20574;-83
2022/09/05 12:10:25;;;;;;;2.15;1.95;;;33.40;76.20;;;;;;8337906;28;20021;-83
2022/09/05 12:15:10;;;;;;;1.80;1.70;;;32.80;78.60;;;;;;8338437;28;20104;-82
2022/09/05 12:19:20;;;;;;;2.38;2.03;;;33.00;82.90;;;;;;8334030;28;20029;-82
2022/09/05 12:23:38;;;;;;;4.88;2.58;;;32.60;82.50;;;;;;8336319;28;20021;-83
2022/09/05 12:27:42;;;;;;;2.65;1.77;;;32.60;83.00;;;;;;8337692;28;20175;-83
2022/09/05 12:32:03;;;;;;;4.53;2.13;;;32.80;83.60;;;;;;8330869;28;20642;-83
2022/09/05 12:36:17;;;;;;;5.05;2.00;;;34.80;78.00;;;;;;8396398;22;20060;-92
2022/09/05 12:40:27;;;;;;;4.38;1.80;;;33.60;80.40;;;;;;8321566;28;20062;-93
2022/09/05 12:44:43;;;;;;;3.40;2.17;;;33.80;82.30;;;;;;8329913;28;20037;-93
2022/09/05 12:49:09;;;;;;;2.20;1.88;;;34.70;75.00;;;;;;8356901;23;20060;-80
2022/09/05 12:53:17;;;;;;;2.63;2.00;;;33.70;78.10;;;;;;8331615;28;20018;-82
2022/09/05 12:57:38;;;;;;;2.45;1.70;;;33.80;81.40;;;;;;8319272;28;20401;-80
2022/09/05 13:01:42;;;;;;;2.83;2.03;;;35.40;70.20;;;;;;8322283;28;20179;-79
2022/09/05 13:06:01;;;;;;;3.25;2.10;;;35.90;73.40;;;;;;8331102;28;20092;-81
2022/09/05 13:10:10;;;;;;;2.05;1.83;;;35.80;70.90;;;;;;8336372;28;20014;-82
2022/09/05 13:14:24;;;;;;;2.35;1.88;;;35.30;67.70;;;;;;8324830;28;20079;-81
2022/09/05 13:18:40;;;;;;;3.03;1.83;;;33.90;74.60;;;;;;8322460;28;20037;-80
2022/09/05 13:22:44;;;;;;;2.17;1.80;;;32.20;76.60;;;;;;8324386;28;20029;-81
2022/09/05 13:26:57;;;;;;;2.97;2.17;;;31.10;81.80;;;;;;8322997;28;20435;-80
2022/09/05 13:31:06;;;;;;;2.10;1.90;;;30.30;85.50;;;;;;8330760;28;20018;-80
2022/09/05 13:35:10;;;;;;;3.08;1.90;;;30.10;85.10;;;;;;8321939;28;20052;-81
2022/09/05 13:39:15;;;;;;;2.55;2.25;;;30.00;86.20;;;;;;8325368;28;20037;-80
2022/09/05 13:43:25;;;;;;;2.00;1.90;;;30.40;83.40;;;;;;8322334;28;20025;-79
2022/09/05 13:47:26;;;;;;;;;;;30.50;84.70;;;;;;8316862;28;20041;-81
2022/09/05 13:51:49;;;;;;;2.08;1.88;;;32.00;81.20;;;;;;8329248;28;19912;-81
2022/09/05 13:55:57;;;;;;;3.30;2.40;;;33.10;79.00;;;;;;8334057;28;20025;-82
2022/09/05 14:00:08;;;;;;;5.07;2.25;;;34.30;76.40;;;;;;8328052;28;20018;-81
2022/09/05 14:04:27;;;;;;;3.50;2.05;;;36.20;70.80;;;;;;8318752;28;20020;-81
2022/09/05 14:08:54;;;;;;;6.23;1.83;;;37.80;64.50;;;;;;8323389;28;20104;-83
2022/09/05 14:13:00;;;;;;;2.33;1.90;;;39.80;59.90;;;;;;8303255;28;20026;-81
2022/09/05 14:17:27;;;;;;;3.53;2.10;;;40.10;55.20;;;;;;8309370;28;20056;-80
2022/09/05 14:21:35;;;;;;;2.28;2.00;;;40.80;53.30;;;;;;8320219;28;20044;-83
2022/09/05 14:25:53;;;;;;;2.30;1.95;;;39.70;53.50;;;;;;8337551;28;20028;-82
2022/09/05 14:29:55;;;;;;;1.92;1.83;;;37.80;60.50;;;;;;8340245;28;20282;-82
2022/09/05 14:34:07;;;;;;;2.95;2.00;;;38.00;56.70;;;;;;8338780;28;20009;-80
2022/09/05 14:38:46;;;;;;;2.72;1.95;;;38.10;57.80;;;;;;8342435;28;20028;-82
2022/09/05 14:43:08;;;;;;;3.63;1.90;;;38.50;58.10;;;;;;8344758;28;20099;-83
2022/09/05 14:47:44;;;;;;;2.30;1.77;;;39.70;51.90;;;;;;8333959;28;20040;-82
2022/09/05 14:51:50;;;;;;;3.10;1.95;;;39.80;51.20;;;;;;8327501;28;20034;-83
2022/09/05 14:56:04;;;;;;;3.05;1.70;;;39.90;49.60;;;;;;8322725;28;20036;-82
2022/09/05 15:00:11;;;;;;;1.83;1.73;;;39.80;49.60;;;;;;8331344;28;20017;-81
2022/09/05 15:04:13;;;;;;;4.30;1.92;;;37.50;53.40;;;;;;8318663;28;20018;-82
2022/09/05 15:08:21;;;;;;;2.00;1.80;;;34.60;57.60;;;;;;8334747;28;20453;-80
2022/09/05 15:12:22;;;;;;;2.35;2.10;;;32.40;65.70;;;;;;8336144;28;20021;-81
2022/09/05 15:16:24;;;;;;;2.88;1.70;;;31.20;66.10;;;;;;8351987;28;20057;-82
2022/09/05 15:20:34;;;;;;;2.10;1.90;;;30.10;69.80;;;;;;8349733;28;20609;-82
2022/09/05 15:24:35;;;;;;;2.10;1.70;;;29.90;68.50;;;;;;8325246;28;20057;-82
2022/09/05 15:28:42;;;;;;;2.20;2.00;;;29.80;69.30;;;;;;8331284;28;20060;-83
2022/09/05 15:32:44;;;;;;;5.90;2.00;;;29.60;76.50;;;;;;8340157;28;20041;-81
2022/09/05 15:36:44;;;;;;;3.22;2.00;;;30.40;73.00;;;;;;8332422;28;20025;-82
2022/09/05 15:41:01;;;;;;;3.22;2.05;;;31.40;70.00;;;;;;8318053;28;20024;-82
2022/09/05 15:45:07;;;;;;;2.22;1.83;;;30.90;71.80;;;;;;8321981;28;20403;-82
2022/09/05 15:49:20;;;;;;;2.30;1.75;;;33.00;68.40;;;;;;8330450;28;20029;-82
2022/09/05 15:53:33;;;;;;;2.13;1.83;;;35.00;61.70;;;;;;8311024;28;20029;-82
2022/09/05 15:57:39;;;;;;;1.98;1.83;;;36.40;59.00;;;;;;8324314;28;20048;-81
2022/09/05 16:01:40;;;;;;;4.43;2.28;;;37.30;63.50;;;;;;8333020;28;20033;-82
2022/09/05 16:05:50;;;;;;;2.15;1.95;;;37.00;58.60;;;;;;8319694;28;20025;-82
2022/09/05 16:09:53;;;;;;;3.75;2.00;;;34.70;57.40;;;;;;8336188;28;20160;-82
2022/09/05 16:14:15;;;;;;;2.28;2.08;;;31.70;66.80;;;;;;8336036;28;20216;-81
2022/09/05 16:18:38;;;;;;;3.35;2.00;;;29.50;69.80;;;;;;8323448;28;20036;-80
2022/09/05 16:22:48;;;;;;;4.38;2.17;;;28.50;73.10;;;;;;8339013;28;20033;-82
2022/09/05 16:26:52;;;;;;;2.00;1.80;;;27.80;85.80;;;;;;8331014;28;20350;-82
2022/09/05 16:31:00;;;;;;;2.72;2.22;;;26.80;87.70;;;;;;8333869;28;20026;-81
2022/09/05 16:35:12;;;;;;;1.90;1.80;;;26.40;86.00;;;;;;8325256;28;20053;-81
2022/09/05 16:39:18;;;;;;;3.25;1.90;;;26.10;90.70;;;;;;8337469;28;20025;-82
2022/09/05 16:43:23;;;;;;;2.35;1.85;;;25.90;91.80;;;;;;8340127;28;21295;-82
2022/09/05 16:47:46;;;;;;;2.90;1.90;;;25.50;97.30;;;;;;8326602;28;20509;-82
2022/09/05 16:51:51;;;;;;;2.20;1.98;;;25.10;94.50;;;;;;8341484;28;20026;-83
2022/09/05 16:56:03;;;;;;;2.75;2.05;;;24.60;96.50;;;;;;8320085;28;20021;-80
2022/09/05 17:00:06;;;;;;;2.90;2.40;;;24.20;95.70;;;;;;8335190;28;20037;-81
2022/09/05 17:04:21;;;;;;;3.50;2.10;;;23.90;97.30;;;;;;8324360;28;20021;-81
2022/09/05 17:08:24;;;;;;;2.55;2.15;;;23.70;99.90;;;;;;8344282;28;20032;-82
2022/09/05 17:12:30;;;;;;;2.50;2.17;;;23.20;99.90;;;;;;8338726;28;20068;-80
2022/09/05 17:16:35;;;;;;;10.48;5.30;;;22.90;99.90;;;;;;8324212;28;20025;-81
2022/09/05 17:20:39;;;;;;;8.40;5.32;;;23.00;99.90;;;;;;8328301;28;20033;-81
2022/09/05 17:24:43;;;;;;;18.50;7.85;;;22.90;99.90;;;;;;8341752;28;20029;-81
2022/09/05 17:29:06;;;;;;;6.20;3.58;;;22.80;99.90;;;;;;8335736;28;20021;-81
2022/09/05 17:33:35;;;;;;;4.13;3.15;;;22.70;99.90;;;;;;8333959;28;20571;-82
2022/09/05 17:37:38;;;;;;;19.42;7.47;;;22.40;99.90;;;;;;8335434;28;20190;-81
2022/09/05 17:41:55;;;;;;;7.30;5.07;;;22.10;99.90;;;;;;8332316;28;20027;-82
2022/09/05 17:46:17;;;;;;;5.72;4.25;;;21.80;99.90;;;;;;8331430;28;20099;-82
2022/09/05 17:50:40;;;;;;;13.40;4.95;;;21.40;99.90;;;;;;8333389;28;20114;-82
2022/09/05 17:54:41;;;;;;;9.15;4.97;;;21.00;99.90;;;;;;8324840;28;20499;-81
2022/09/05 17:59:02;;;;;;;4.88;4.05;;;21.00;99.90;;;;;;8336966;28;20044;-81
2022/09/05 18:03:02;;;;;;;17.30;8.00;;;20.80;99.90;;;;;;8333216;28;20021;-81
2022/09/05 18:07:27;;;;;;;4.55;3.05;;;20.60;99.90;;;;;;8329065;28;20029;-82
2022/09/05 18:11:27;;;;;;;6.32;4.28;;;20.10;99.90;;;;;;8343939;28;20029;-81
2022/09/05 18:15:30;;;;;;;5.85;4.18;;;19.40;99.90;;;;;;8328204;28;20022;-82
2022/09/05 18:19:31;;;;;;;6.00;4.10;;;19.20;99.90;;;;;;8347304;28;20100;-81
2022/09/05 18:23:46;;;;;;;6.28;3.55;;;19.10;99.90;;;;;;8326671;28;20036;-79
2022/09/05 18:28:11;;;;;;;11.25;5.43;;;18.80;99.90;;;;;;8323856;28;20534;-81
2022/09/05 18:32:11;;;;;;;7.03;4.38;;;19.00;99.90;;;;;;8332839;28;20033;-81
2022/09/05 18:36:33;;;;;;;4.72;3.72;;;19.10;99.90;;;;;;8313854;28;20045;-81
2022/09/05 18:41:08;;;;;;;5.60;3.80;;;18.90;99.90;;;;;;8316695;28;20037;-81
2022/09/05 18:45:13;;;;;;;8.73;4.80;;;18.70;99.90;;;;;;8316582;28;20048;-81
2022/09/05 18:49:35;;;;;;;11.63;4.55;;;18.70;99.90;;;;;;8348868;22;20117;-92
2022/09/05 18:53:36;;;;;;;7.78;3.90;;;18.50;99.90;;;;;;8336440;28;20029;-93
2022/09/05 18:57:38;;;;;;;4.93;3.85;;;18.30;99.90;;;;;;8331516;28;20029;-93
2022/09/05 19:01:57;;;;;;;10.50;4.32;;;18.20;99.90;;;;;;8330917;28;20410;-93
2022/09/05 19:06:06;;;;;;;5.18;3.58;;;18.00;99.90;;;;;;8341148;28;20443;-92
2022/09/05 19:10:24;;;;;;;8.48;4.22;;;17.80;99.90;;;;;;8339145;28;20395;-93
2022/09/05 19:14:47;;;;;;;12.30;4.60;;;17.70;99.90;;;;;;8342415;28;20064;-93
2022/09/05 19:19:12;;;;;;;12.07;4.32;;;17.70;99.90;;;;;;8328353;28;20033;-92
2022/09/05 19:23:18;;;;;;;8.82;4.45;;;17.50;99.90;;;;;;8332291;28;20025;-92
2022/09/05 19:27:19;;;;;;;6.25;4.00;;;17.20;99.90;;;;;;8332995;28;20022;-93
2022/09/05 19:31:23;;;;;;;8.25;4.13;;;17.10;99.90;;;;;;8330475;28;20029;-92
2022/09/05 19:35:26;;;;;;;7.35;4.20;;;16.90;99.90;;;;;;8327112;28;20047;-92
2022/09/05 19:39:39;;;;;;;4.43;3.58;;;16.80;99.90;;;;;;8327772;28;20076;-93
2022/09/05 19:44:04;;;;;;;4.03;3.63;;;16.60;99.90;;;;;;8330642;28;20053;-92
2022/09/05 19:48:18;;;;;;;11.65;5.00;;;16.40;99.90;;;;;;8335093;28;20360;-93
2022/09/05 19:52:19;;;;;;;7.88;4.13;;;16.20;99.90;;;;;;8337467;28;20051;-92
2022/09/05 19:56:22;;;;;;;8.43;4.00;;;16.00;99.90;;;;;;8329950;28;20941;-92
2022/09/05 20:00:24;;;;;;;5.95;3.75;;;15.80;99.90;;;;;;8335820;28;20022;-92
2022/09/05 20:04:30;;;;;;;5.47;4.10;;;15.70;99.90;;;;;;8333226;28;20403;-92
2022/09/05 20:08:33;;;;;;;6.57;4.05;;;15.40;99.90;;;;;;8361150;22;20103;-83
2022/09/05 20:12:37;;;;;;;7.63;4.30;;;15.30;99.90;;;;;;8322789;28;20048;-82
2022/09/05 20:16:39;;;;;;;7.30;4.63;;;15.40;99.90;;;;;;8316344;28;20048;-82
2022/09/05 20:20:50;;;;;;;7.60;5.22;;;15.40;99.90;;;;;;8334558;28;20047;-83
2022/09/05 20:24:52;;;;;;;11.10;5.30;;;15.20;99.90;;;;;;8333466;28;20033;-81
2022/09/05 20:29:01;;;;;;;7.70;4.95;;;15.30;99.90;;;;;;8327043;28;20029;-82
2022/09/05 20:33:21;;;;;;;10.23;5.25;;;15.50;99.90;;;;;;8333371;28;20022;-83
2022/09/05 20:37:26;;;;;;;7.88;4.90;;;15.30;99.90;;;;;;8335681;28;20286;-83
2022/09/05 20:41:30;;;;;;;8.52;4.70;;;15.00;99.90;;;;;;8327852;28;20091;-83
2022/09/05 20:45:43;;;;;;;7.88;5.43;;;14.80;99.90;;;;;;8331708;28;20040;-82
2022/09/05 20:49:51;;;;;;;7.38;5.50;;;14.70;99.90;;;;;;8335659;28;20034;-82
2022/09/05 20:53:52;;;;;;;7.30;5.60;;;14.60;99.90;;;;;;8336327;28;20029;-81
2022/09/05 20:58:12;;;;;;;9.93;5.57;;;14.60;99.90;;;;;;8325931;28;20021;-82
2022/09/05 21:02:26;;;;;;;15.07;5.38;;;14.80;99.90;;;;;;8337631;28;20317;-82
2022/09/05 21:06:32;;;;;;;7.22;5.57;;;14.90;99.90;;;;;;8343984;28;20495;-82
2022/09/05 21:10:45;;;;;;;9.80;6.30;;;14.70;99.90;;;;;;8337093;28;20037;-82
2022/09/05 21:14:46;;;;;;;8.15;5.38;;;14.70;99.90;;;;;;8330800;28;20033;-82
2022/09/05 21:18:49;;;;;;;11.10;5.60;;;14.50;99.90;;;;;;8336127;28;20087;-82
2022/09/05 21:22:50;;;;;;;10.13;6.20;;;14.40;99.90;;;;;;8330536;28;20036;-82
2022/09/05 21:26:50;;;;;;;12.02;6.53;;;14.20;99.90;;;;;;8334954;28;20021;-82
2022/09/05 21:30:51;;;;;;;13.55;6.40;;;14.20;99.90;;;;;;8329491;28;20013;-82
2022/09/05 21:34:52;;;;;;;8.50;5.55;;;14.20;99.90;;;;;;8333475;28;20029;-82
2022/09/05 21:38:53;;;;;;;14.68;6.32;;;14.30;99.90;;;;;;8336735;28;20426;-82
2022/09/05 21:42:58;;;;;;;8.95;5.60;;;14.30;99.90;;;;;;8334715;28;20025;-82
2022/09/05 21:46:59;;;;;;;10.05;5.68;;;14.20;99.90;;;;;;8326138;28;20024;-82
2022/09/05 21:51:07;;;;;;;7.72;4.90;;;14.00;99.90;;;;;;8341283;28;20071;-83
2022/09/05 21:55:08;;;;;;;7.47;5.35;;;14.00;99.90;;;;;;8338921;28;20021;-82
2022/09/05 21:59:09;;;;;;;7.47;5.32;;;14.30;99.90;;;;;;8331973;28;20498;-82
2022/09/05 22:03:09;;;;;;;9.38;6.25;;;14.30;99.90;;;;;;8333895;28;20399;-81
2022/09/05 22:07:16;;;;;;;8.68;5.78;;;14.20;99.90;;;;;;8328061;28;20047;-82